sensor_id;sensor_type;location;lat;lon;timestamp;P1;durP1;ratioP1;P2;durP2;ratioP2
46288;SDS011;63105;46.158;14.604;2023-07-28T00:02:11;2.00;;;0.90;;
46288;SDS011;63105;46.158;14.604;2023-07-28T00:04:36;2.78;;;1.20;;
46288;SDS011;63105;46.158;14.604;2023-07-28T00:07:02;3.28;;;1.20;;
46288;SDS011;63105;46.158;14.604;2023-07-28T00:09:27;1.98;;;1.00;;
46288;SDS011;63105;46.158;14.604;2023-07-28T00:11:52;2.43;;;1.03;;
46288;SDS011;63105;46.158;14.604;2023-07-28T00:14:18;2.17;;;1.05;;
46288;SDS011;63105;46.158;14.604;2023-07-28T00:16:43;2.15;;;0.82;;
46288;SDS011;63105;46.158;14.604;2023-07-28T00:19:09;2.72;;;1.20;;
46288;SDS011;63105;46.158;14.604;2023-07-28T00:21:34;2.70;;;1.30;;
46288;SDS011;63105;46.158;14.604;2023-07-28T00:23:59;3.05;;;1.30;;
46288;SDS011;63105;46.158;14.604;2023-07-28T00:26:24;2.20;;;1.00;;
46288;SDS011;63105;46.158;14.604;2023-07-28T00:28:49;3.90;;;1.20;;
46288;SDS011;63105;46.158;14.604;2023-07-28T00:31:15;2.33;;;1.10;;
46288;SDS011;63105;46.158;14.604;2023-07-28T00:33:40;2.70;;;1.00;;
46288;SDS011;63105;46.158;14.604;2023-07-28T00:36:05;3.13;;;1.20;;
46288;SDS011;63105;46.158;14.604;2023-07-28T00:38:30;2.63;;;1.10;;
46288;SDS011;63105;46.158;14.604;2023-07-28T00:40:55;2.45;;;1.00;;
46288;SDS011;63105;46.158;14.604;2023-07-28T00:43:21;2.30;;;1.00;;
46288;SDS011;63105;46.158;14.604;2023-07-28T00:45:46;2.77;;;1.10;;
46288;SDS011;63105;46.158;14.604;2023-07-28T00:48:12;2.92;;;1.20;;
46288;SDS011;63105;46.158;14.604;2023-07-28T00:50:38;1.88;;;1.00;;
46288;SDS011;63105;46.158;14.604;2023-07-28T00:53:03;2.45;;;1.10;;
46288;SDS011;63105;46.158;14.604;2023-07-28T00:55:28;3.60;;;1.10;;
46288;SDS011;63105;46.158;14.604;2023-07-28T00:57:54;2.70;;;1.15;;
46288;SDS011;63105;46.158;14.604;2023-07-28T01:00:19;3.33;;;1.20;;
46288;SDS011;63105;46.158;14.604;2023-07-28T01:02:44;3.47;;;1.50;;
46288;SDS011;63105;46.158;14.604;2023-07-28T01:05:09;2.72;;;1.30;;
46288;SDS011;63105;46.158;14.604;2023-07-28T01:10:22;2.87;;;1.20;;
46288;SDS011;63105;46.158;14.604;2023-07-28T01:12:49;3.63;;;1.08;;
46288;SDS011;63105;46.158;14.604;2023-07-28T01:15:14;3.13;;;1.10;;
46288;SDS011;63105;46.158;14.604;2023-07-28T01:17:40;2.50;;;1.00;;
46288;SDS011;63105;46.158;14.604;2023-07-28T01:20:06;2.45;;;1.25;;
46288;SDS011;63105;46.158;14.604;2023-07-28T01:25:32;2.88;;;1.30;;
46288;SDS011;63105;46.158;14.604;2023-07-28T01:28:01;2.63;;;1.15;;
46288;SDS011;63105;46.158;14.604;2023-07-28T01:30:26;2.88;;;1.10;;
46288;SDS011;63105;46.158;14.604;2023-07-28T01:32:56;3.58;;;1.40;;
46288;SDS011;63105;46.158;14.604;2023-07-28T01:35:21;2.67;;;1.20;;
46288;SDS011;63105;46.158;14.604;2023-07-28T01:37:47;3.03;;;1.20;;
46288;SDS011;63105;46.158;14.604;2023-07-28T01:40:16;2.85;;;1.30;;
46288;SDS011;63105;46.158;14.604;2023-07-28T01:42:41;2.97;;;1.35;;
46288;SDS011;63105;46.158;14.604;2023-07-28T01:45:06;3.20;;;1.40;;
46288;SDS011;63105;46.158;14.604;2023-07-28T01:47:32;2.30;;;1.02;;
46288;SDS011;63105;46.158;14.604;2023-07-28T01:49:57;3.83;;;1.10;;
46288;SDS011;63105;46.158;14.604;2023-07-28T01:52:22;3.00;;;1.13;;
46288;SDS011;63105;46.158;14.604;2023-07-28T01:54:47;2.30;;;1.08;;
46288;SDS011;63105;46.158;14.604;2023-07-28T01:57:13;2.20;;;1.00;;
46288;SDS011;63105;46.158;14.604;2023-07-28T01:59:38;3.22;;;1.20;;
46288;SDS011;63105;46.158;14.604;2023-07-28T02:02:03;2.40;;;1.10;;
46288;SDS011;63105;46.158;14.604;2023-07-28T02:04:29;3.05;;;1.45;;
46288;SDS011;63105;46.158;14.604;2023-07-28T02:06:54;2.73;;;1.17;;
46288;SDS011;63105;46.158;14.604;2023-07-28T02:09:19;2.37;;;1.10;;
46288;SDS011;63105;46.158;14.604;2023-07-28T02:11:44;3.13;;;1.10;;
46288;SDS011;63105;46.158;14.604;2023-07-28T02:14:09;3.17;;;1.23;;
46288;SDS011;63105;46.158;14.604;2023-07-28T02:16:35;2.63;;;1.23;;
46288;SDS011;63105;46.158;14.604;2023-07-28T02:19:00;3.10;;;1.50;;
46288;SDS011;63105;46.158;14.604;2023-07-28T02:21:25;2.53;;;1.20;;
46288;SDS011;63105;46.158;14.604;2023-07-28T02:23:50;2.90;;;1.30;;
46288;SDS011;63105;46.158;14.604;2023-07-28T02:26:15;2.60;;;1.13;;
46288;SDS011;63105;46.158;14.604;2023-07-28T02:28:41;2.37;;;1.10;;
46288;SDS011;63105;46.158;14.604;2023-07-28T02:31:06;2.40;;;1.10;;
46288;SDS011;63105;46.158;14.604;2023-07-28T02:33:31;3.13;;;1.20;;
46288;SDS011;63105;46.158;14.604;2023-07-28T02:36:00;3.10;;;1.10;;
46288;SDS011;63105;46.158;14.604;2023-07-28T02:38:25;2.60;;;1.10;;
46288;SDS011;63105;46.158;14.604;2023-07-28T02:40:50;2.63;;;1.20;;
46288;SDS011;63105;46.158;14.604;2023-07-28T02:43:16;3.22;;;1.30;;
46288;SDS011;63105;46.158;14.604;2023-07-28T02:45:41;3.20;;;1.27;;
46288;SDS011;63105;46.158;14.604;2023-07-28T02:48:07;3.20;;;1.23;;
46288;SDS011;63105;46.158;14.604;2023-07-28T02:50:32;3.13;;;1.40;;
46288;SDS011;63105;46.158;14.604;2023-07-28T02:52:57;2.65;;;1.23;;
46288;SDS011;63105;46.158;14.604;2023-07-28T02:55:23;3.50;;;1.17;;
46288;SDS011;63105;46.158;14.604;2023-07-28T02:57:48;2.93;;;1.30;;
46288;SDS011;63105;46.158;14.604;2023-07-28T03:00:13;3.33;;;1.48;;
46288;SDS011;63105;46.158;14.604;2023-07-28T03:02:39;2.42;;;1.23;;
46288;SDS011;63105;46.158;14.604;2023-07-28T03:05:04;3.50;;;1.10;;
46288;SDS011;63105;46.158;14.604;2023-07-28T03:07:29;3.33;;;1.27;;
46288;SDS011;63105;46.158;14.604;2023-07-28T03:09:55;2.63;;;1.20;;
46288;SDS011;63105;46.158;14.604;2023-07-28T03:12:20;3.00;;;1.20;;
46288;SDS011;63105;46.158;14.604;2023-07-28T03:14:46;2.72;;;1.20;;
46288;SDS011;63105;46.158;14.604;2023-07-28T03:17:11;2.80;;;1.20;;
46288;SDS011;63105;46.158;14.604;2023-07-28T03:19:36;3.47;;;1.43;;
46288;SDS011;63105;46.158;14.604;2023-07-28T03:22:01;2.92;;;1.30;;
46288;SDS011;63105;46.158;14.604;2023-07-28T03:24:26;2.97;;;1.30;;
46288;SDS011;63105;46.158;14.604;2023-07-28T03:26:52;3.20;;;1.38;;
46288;SDS011;63105;46.158;14.604;2023-07-28T03:29:17;3.00;;;1.30;;
46288;SDS011;63105;46.158;14.604;2023-07-28T03:31:43;3.03;;;1.40;;
46288;SDS011;63105;46.158;14.604;2023-07-28T03:34:08;2.73;;;1.20;;
46288;SDS011;63105;46.158;14.604;2023-07-28T03:36:33;3.45;;;1.30;;
46288;SDS011;63105;46.158;14.604;2023-07-28T03:38:59;2.33;;;1.13;;
46288;SDS011;63105;46.158;14.604;2023-07-28T03:41:24;2.93;;;1.20;;
46288;SDS011;63105;46.158;14.604;2023-07-28T03:43:49;3.40;;;1.60;;
46288;SDS011;63105;46.158;14.604;2023-07-28T03:46:14;3.30;;;1.48;;
46288;SDS011;63105;46.158;14.604;2023-07-28T03:48:40;2.95;;;1.33;;
46288;SDS011;63105;46.158;14.604;2023-07-28T03:51:05;2.93;;;1.40;;
46288;SDS011;63105;46.158;14.604;2023-07-28T03:53:30;2.97;;;1.33;;
46288;SDS011;63105;46.158;14.604;2023-07-28T03:55:55;3.03;;;1.20;;
46288;SDS011;63105;46.158;14.604;2023-07-28T03:58:23;2.25;;;1.13;;
46288;SDS011;63105;46.158;14.604;2023-07-28T04:00:49;3.30;;;1.40;;
46288;SDS011;63105;46.158;14.604;2023-07-28T04:03:14;2.90;;;1.30;;
46288;SDS011;63105;46.158;14.604;2023-07-28T04:05:39;2.70;;;1.10;;
46288;SDS011;63105;46.158;14.604;2023-07-28T04:08:04;3.67;;;1.38;;
46288;SDS011;63105;46.158;14.604;2023-07-28T04:10:30;2.88;;;1.30;;
46288;SDS011;63105;46.158;14.604;2023-07-28T04:12:55;2.93;;;1.30;;
46288;SDS011;63105;46.158;14.604;2023-07-28T04:15:20;3.10;;;1.30;;
46288;SDS011;63105;46.158;14.604;2023-07-28T04:17:45;2.53;;;1.30;;
46288;SDS011;63105;46.158;14.604;2023-07-28T04:20:11;2.97;;;1.33;;
46288;SDS011;63105;46.158;14.604;2023-07-28T04:22:36;3.15;;;1.35;;
46288;SDS011;63105;46.158;14.604;2023-07-28T04:25:01;2.93;;;1.47;;
46288;SDS011;63105;46.158;14.604;2023-07-28T04:27:27;4.55;;;1.23;;
46288;SDS011;63105;46.158;14.604;2023-07-28T04:29:52;2.78;;;1.27;;
46288;SDS011;63105;46.158;14.604;2023-07-28T04:32:17;4.07;;;1.40;;
46288;SDS011;63105;46.158;14.604;2023-07-28T04:34:42;2.78;;;1.30;;
46288;SDS011;63105;46.158;14.604;2023-07-28T04:37:08;2.60;;;1.27;;
46288;SDS011;63105;46.158;14.604;2023-07-28T04:39:33;3.10;;;1.40;;
46288;SDS011;63105;46.158;14.604;2023-07-28T04:41:58;2.63;;;1.10;;
46288;SDS011;63105;46.158;14.604;2023-07-28T04:44:23;3.13;;;1.20;;
46288;SDS011;63105;46.158;14.604;2023-07-28T04:46:48;3.43;;;1.40;;
46288;SDS011;63105;46.158;14.604;2023-07-28T04:49:14;3.00;;;1.43;;
46288;SDS011;63105;46.158;14.604;2023-07-28T04:51:39;2.60;;;1.10;;
46288;SDS011;63105;46.158;14.604;2023-07-28T04:54:04;4.97;;;1.67;;
46288;SDS011;63105;46.158;14.604;2023-07-28T04:56:29;2.60;;;1.30;;
46288;SDS011;63105;46.158;14.604;2023-07-28T04:58:54;4.13;;;1.80;;
46288;SDS011;63105;46.158;14.604;2023-07-28T05:01:20;3.05;;;1.38;;
46288;SDS011;63105;46.158;14.604;2023-07-28T05:03:45;2.80;;;1.30;;
46288;SDS011;63105;46.158;14.604;2023-07-28T05:06:10;3.08;;;1.60;;
46288;SDS011;63105;46.158;14.604;2023-07-28T05:08:35;4.70;;;1.75;;
46288;SDS011;63105;46.158;14.604;2023-07-28T05:11:01;3.47;;;1.60;;
46288;SDS011;63105;46.158;14.604;2023-07-28T05:13:26;3.13;;;1.23;;
46288;SDS011;63105;46.158;14.604;2023-07-28T05:15:51;2.85;;;1.50;;
46288;SDS011;63105;46.158;14.604;2023-07-28T05:18:17;3.35;;;1.73;;
46288;SDS011;63105;46.158;14.604;2023-07-28T05:20:42;2.90;;;1.40;;
46288;SDS011;63105;46.158;14.604;2023-07-28T05:23:07;3.77;;;1.63;;
46288;SDS011;63105;46.158;14.604;2023-07-28T05:25:32;5.37;;;1.50;;
46288;SDS011;63105;46.158;14.604;2023-07-28T05:27:57;3.47;;;1.53;;
46288;SDS011;63105;46.158;14.604;2023-07-28T05:30:23;3.20;;;1.55;;
46288;SDS011;63105;46.158;14.604;2023-07-28T05:32:48;3.77;;;1.50;;
46288;SDS011;63105;46.158;14.604;2023-07-28T05:35:14;3.17;;;1.55;;
46288;SDS011;63105;46.158;14.604;2023-07-28T05:37:39;3.22;;;1.38;;
46288;SDS011;63105;46.158;14.604;2023-07-28T05:40:08;4.13;;;2.00;;
46288;SDS011;63105;46.158;14.604;2023-07-28T05:42:33;2.97;;;1.40;;
46288;SDS011;63105;46.158;14.604;2023-07-28T05:44:59;4.32;;;1.70;;
46288;SDS011;63105;46.158;14.604;2023-07-28T05:47:25;5.63;;;1.77;;
46288;SDS011;63105;46.158;14.604;2023-07-28T05:49:51;4.40;;;1.93;;
46288;SDS011;63105;46.158;14.604;2023-07-28T05:52:18;5.25;;;1.80;;
46288;SDS011;63105;46.158;14.604;2023-07-28T05:54:43;3.85;;;1.60;;
46288;SDS011;63105;46.158;14.604;2023-07-28T05:57:08;4.17;;;1.50;;
46288;SDS011;63105;46.158;14.604;2023-07-28T05:59:34;5.28;;;2.25;;
46288;SDS011;63105;46.158;14.604;2023-07-28T06:01:59;6.03;;;2.80;;
46288;SDS011;63105;46.158;14.604;2023-07-28T06:04:24;5.93;;;2.97;;
46288;SDS011;63105;46.158;14.604;2023-07-28T06:06:49;5.40;;;2.70;;
46288;SDS011;63105;46.158;14.604;2023-07-28T06:09:14;6.43;;;3.08;;
46288;SDS011;63105;46.158;14.604;2023-07-28T06:11:40;5.23;;;2.50;;
46288;SDS011;63105;46.158;14.604;2023-07-28T06:14:05;4.53;;;2.50;;
46288;SDS011;63105;46.158;14.604;2023-07-28T06:16:30;4.67;;;2.27;;
46288;SDS011;63105;46.158;14.604;2023-07-28T06:18:56;5.05;;;2.35;;
46288;SDS011;63105;46.158;14.604;2023-07-28T06:21:21;5.27;;;2.17;;
46288;SDS011;63105;46.158;14.604;2023-07-28T06:23:46;3.83;;;1.87;;
46288;SDS011;63105;46.158;14.604;2023-07-28T06:26:11;4.47;;;2.13;;
46288;SDS011;63105;46.158;14.604;2023-07-28T06:28:37;4.73;;;2.20;;
46288;SDS011;63105;46.158;14.604;2023-07-28T06:31:03;3.80;;;1.85;;
46288;SDS011;63105;46.158;14.604;2023-07-28T06:33:28;3.73;;;1.67;;
46288;SDS011;63105;46.158;14.604;2023-07-28T06:35:54;3.83;;;1.90;;
46288;SDS011;63105;46.158;14.604;2023-07-28T06:38:19;3.50;;;1.60;;
46288;SDS011;63105;46.158;14.604;2023-07-28T06:40:44;3.42;;;1.60;;
46288;SDS011;63105;46.158;14.604;2023-07-28T06:43:09;3.77;;;1.93;;
46288;SDS011;63105;46.158;14.604;2023-07-28T06:45:34;4.70;;;1.73;;
46288;SDS011;63105;46.158;14.604;2023-07-28T06:48:00;9.73;;;2.63;;
46288;SDS011;63105;46.158;14.604;2023-07-28T06:50:25;5.50;;;2.43;;
46288;SDS011;63105;46.158;14.604;2023-07-28T06:52:50;4.55;;;1.92;;
46288;SDS011;63105;46.158;14.604;2023-07-28T06:55:16;4.07;;;1.90;;
46288;SDS011;63105;46.158;14.604;2023-07-28T06:57:42;4.10;;;2.07;;
46288;SDS011;63105;46.158;14.604;2023-07-28T07:00:07;4.00;;;1.80;;
46288;SDS011;63105;46.158;14.604;2023-07-28T07:02:34;3.92;;;1.50;;
46288;SDS011;63105;46.158;14.604;2023-07-28T07:04:59;3.00;;;1.60;;
46288;SDS011;63105;46.158;14.604;2023-07-28T07:07:25;3.95;;;1.70;;
46288;SDS011;63105;46.158;14.604;2023-07-28T07:09:50;2.90;;;1.45;;
46288;SDS011;63105;46.158;14.604;2023-07-28T07:12:16;3.95;;;1.90;;
46288;SDS011;63105;46.158;14.604;2023-07-28T07:14:41;3.37;;;1.70;;
46288;SDS011;63105;46.158;14.604;2023-07-28T07:17:06;3.53;;;1.83;;
46288;SDS011;63105;46.158;14.604;2023-07-28T07:19:31;3.83;;;1.75;;
46288;SDS011;63105;46.158;14.604;2023-07-28T07:21:57;3.75;;;1.58;;
46288;SDS011;63105;46.158;14.604;2023-07-28T07:24:22;2.92;;;1.40;;
46288;SDS011;63105;46.158;14.604;2023-07-28T07:26:47;3.20;;;1.40;;
46288;SDS011;63105;46.158;14.604;2023-07-28T07:29:12;3.33;;;1.60;;
46288;SDS011;63105;46.158;14.604;2023-07-28T07:31:38;4.07;;;1.50;;
46288;SDS011;63105;46.158;14.604;2023-07-28T07:34:03;3.88;;;1.40;;
46288;SDS011;63105;46.158;14.604;2023-07-28T07:36:29;2.70;;;1.25;;
46288;SDS011;63105;46.158;14.604;2023-07-28T07:38:54;2.85;;;1.40;;
46288;SDS011;63105;46.158;14.604;2023-07-28T07:41:21;3.92;;;1.55;;
46288;SDS011;63105;46.158;14.604;2023-07-28T07:43:46;4.22;;;1.70;;
46288;SDS011;63105;46.158;14.604;2023-07-28T07:46:12;4.05;;;1.67;;
46288;SDS011;63105;46.158;14.604;2023-07-28T07:48:37;5.15;;;1.70;;
46288;SDS011;63105;46.158;14.604;2023-07-28T07:51:02;4.60;;;1.70;;
46288;SDS011;63105;46.158;14.604;2023-07-28T07:53:28;3.20;;;1.40;;
46288;SDS011;63105;46.158;14.604;2023-07-28T07:55:54;4.55;;;1.80;;
46288;SDS011;63105;46.158;14.604;2023-07-28T07:58:19;3.40;;;1.60;;
46288;SDS011;63105;46.158;14.604;2023-07-28T08:00:44;3.10;;;1.48;;
46288;SDS011;63105;46.158;14.604;2023-07-28T08:03:09;2.93;;;1.50;;
46288;SDS011;63105;46.158;14.604;2023-07-28T08:05:35;4.68;;;1.80;;
46288;SDS011;63105;46.158;14.604;2023-07-28T08:08:00;2.90;;;1.30;;
46288;SDS011;63105;46.158;14.604;2023-07-28T08:10:25;2.72;;;1.23;;
46288;SDS011;63105;46.158;14.604;2023-07-28T08:12:51;2.33;;;1.08;;
46288;SDS011;63105;46.158;14.604;2023-07-28T08:15:16;2.87;;;1.30;;
46288;SDS011;63105;46.158;14.604;2023-07-28T08:17:41;2.23;;;1.20;;
46288;SDS011;63105;46.158;14.604;2023-07-28T08:20:07;2.73;;;1.10;;
46288;SDS011;63105;46.158;14.604;2023-07-28T08:22:32;2.80;;;1.35;;
46288;SDS011;63105;46.158;14.604;2023-07-28T08:24:57;2.63;;;1.40;;
46288;SDS011;63105;46.158;14.604;2023-07-28T08:27:22;3.60;;;1.57;;
46288;SDS011;63105;46.158;14.604;2023-07-28T08:29:49;3.60;;;1.50;;
46288;SDS011;63105;46.158;14.604;2023-07-28T08:32:14;2.90;;;1.30;;
46288;SDS011;63105;46.158;14.604;2023-07-28T08:34:39;1.97;;;1.00;;
46288;SDS011;63105;46.158;14.604;2023-07-28T08:37:04;1.93;;;1.00;;
46288;SDS011;63105;46.158;14.604;2023-07-28T08:39:30;3.00;;;1.30;;
46288;SDS011;63105;46.158;14.604;2023-07-28T08:42:01;2.57;;;1.00;;
46288;SDS011;63105;46.158;14.604;2023-07-28T08:44:29;2.40;;;1.20;;
46288;SDS011;63105;46.158;14.604;2023-07-28T08:46:55;2.40;;;1.00;;
46288;SDS011;63105;46.158;14.604;2023-07-28T08:49:20;2.53;;;1.17;;
46288;SDS011;63105;46.158;14.604;2023-07-28T08:51:52;2.75;;;1.35;;
46288;SDS011;63105;46.158;14.604;2023-07-28T08:54:17;2.70;;;1.10;;
46288;SDS011;63105;46.158;14.604;2023-07-28T08:56:43;2.60;;;1.10;;
46288;SDS011;63105;46.158;14.604;2023-07-28T08:59:08;3.53;;;1.13;;
46288;SDS011;63105;46.158;14.604;2023-07-28T09:01:38;2.77;;;1.17;;
46288;SDS011;63105;46.158;14.604;2023-07-28T09:04:06;2.20;;;1.10;;
46288;SDS011;63105;46.158;14.604;2023-07-28T09:06:35;3.35;;;1.20;;
46288;SDS011;63105;46.158;14.604;2023-07-28T09:09:00;2.20;;;1.03;;
46288;SDS011;63105;46.158;14.604;2023-07-28T09:11:25;2.73;;;1.10;;
46288;SDS011;63105;46.158;14.604;2023-07-28T09:13:53;2.45;;;1.10;;
46288;SDS011;63105;46.158;14.604;2023-07-28T09:16:19;6.45;;;1.63;;
46288;SDS011;63105;46.158;14.604;2023-07-28T09:18:44;3.72;;;1.38;;
46288;SDS011;63105;46.158;14.604;2023-07-28T09:21:16;3.90;;;1.20;;
46288;SDS011;63105;46.158;14.604;2023-07-28T09:23:41;2.38;;;1.02;;
46288;SDS011;63105;46.158;14.604;2023-07-28T09:26:06;3.43;;;1.30;;
46288;SDS011;63105;46.158;14.604;2023-07-28T09:28:36;2.10;;;1.00;;
46288;SDS011;63105;46.158;14.604;2023-07-28T09:31:01;3.10;;;1.30;;
46288;SDS011;63105;46.158;14.604;2023-07-28T09:33:32;4.13;;;1.27;;
46288;SDS011;63105;46.158;14.604;2023-07-28T09:35:58;2.38;;;0.90;;
46288;SDS011;63105;46.158;14.604;2023-07-28T09:38:31;2.43;;;1.10;;
46288;SDS011;63105;46.158;14.604;2023-07-28T09:40:57;2.50;;;1.20;;
46288;SDS011;63105;46.158;14.604;2023-07-28T09:43:23;2.13;;;1.05;;
46288;SDS011;63105;46.158;14.604;2023-07-28T09:45:48;2.90;;;1.10;;
46288;SDS011;63105;46.158;14.604;2023-07-28T09:48:14;3.05;;;1.20;;
46288;SDS011;63105;46.158;14.604;2023-07-28T09:50:40;3.28;;;1.40;;
46288;SDS011;63105;46.158;14.604;2023-07-28T09:53:07;2.45;;;1.10;;
46288;SDS011;63105;46.158;14.604;2023-07-28T09:55:32;2.30;;;1.20;;
46288;SDS011;63105;46.158;14.604;2023-07-28T09:58:00;2.53;;;1.13;;
46288;SDS011;63105;46.158;14.604;2023-07-28T10:00:26;3.20;;;1.20;;
46288;SDS011;63105;46.158;14.604;2023-07-28T10:02:52;2.28;;;1.00;;
46288;SDS011;63105;46.158;14.604;2023-07-28T10:05:17;2.28;;;1.20;;
46288;SDS011;63105;46.158;14.604;2023-07-28T10:07:43;2.38;;;1.20;;
46288;SDS011;63105;46.158;14.604;2023-07-28T10:10:10;2.55;;;1.15;;
46288;SDS011;63105;46.158;14.604;2023-07-28T10:12:51;2.70;;;1.08;;
46288;SDS011;63105;46.158;14.604;2023-07-28T10:15:18;2.55;;;1.08;;
46288;SDS011;63105;46.158;14.604;2023-07-28T10:17:44;2.00;;;0.90;;
46288;SDS011;63105;46.158;14.604;2023-07-28T10:23:01;2.72;;;1.20;;
46288;SDS011;63105;46.158;14.604;2023-07-28T10:25:26;2.22;;;1.10;;
46288;SDS011;63105;46.158;14.604;2023-07-28T10:27:52;2.90;;;1.30;;
46288;SDS011;63105;46.158;14.604;2023-07-28T10:30:18;2.22;;;1.10;;
46288;SDS011;63105;46.158;14.604;2023-07-28T10:32:45;2.67;;;1.13;;
46288;SDS011;63105;46.158;14.604;2023-07-28T10:37:43;1.90;;;1.10;;
46288;SDS011;63105;46.158;14.604;2023-07-28T10:42:53;2.42;;;1.10;;
46288;SDS011;63105;46.158;14.604;2023-07-28T10:45:19;2.30;;;1.10;;
46288;SDS011;63105;46.158;14.604;2023-07-28T10:47:44;2.78;;;1.10;;
46288;SDS011;63105;46.158;14.604;2023-07-28T10:50:10;3.80;;;1.20;;
46288;SDS011;63105;46.158;14.604;2023-07-28T10:52:43;2.40;;;0.95;;
46288;SDS011;63105;46.158;14.604;2023-07-28T10:55:21;2.63;;;1.15;;
46288;SDS011;63105;46.158;14.604;2023-07-28T10:57:48;2.55;;;1.00;;
46288;SDS011;63105;46.158;14.604;2023-07-28T11:00:14;2.90;;;1.10;;
46288;SDS011;63105;46.158;14.604;2023-07-28T11:02:44;3.08;;;1.33;;
46288;SDS011;63105;46.158;14.604;2023-07-28T11:05:10;2.05;;;0.95;;
46288;SDS011;63105;46.158;14.604;2023-07-28T11:07:36;2.38;;;1.10;;
46288;SDS011;63105;46.158;14.604;2023-07-28T11:10:01;2.65;;;1.10;;
46288;SDS011;63105;46.158;14.604;2023-07-28T11:12:27;4.10;;;1.20;;
46288;SDS011;63105;46.158;14.604;2023-07-28T11:14:52;2.90;;;1.37;;
46288;SDS011;63105;46.158;14.604;2023-07-28T11:17:18;2.15;;;1.10;;
46288;SDS011;63105;46.158;14.604;2023-07-28T11:19:43;2.77;;;1.23;;
46288;SDS011;63105;46.158;14.604;2023-07-28T11:22:08;2.40;;;1.10;;
46288;SDS011;63105;46.158;14.604;2023-07-28T11:24:33;2.47;;;1.20;;
46288;SDS011;63105;46.158;14.604;2023-07-28T11:26:59;2.55;;;1.00;;
46288;SDS011;63105;46.158;14.604;2023-07-28T11:29:24;2.40;;;1.20;;
46288;SDS011;63105;46.158;14.604;2023-07-28T11:31:49;2.50;;;1.20;;
46288;SDS011;63105;46.158;14.604;2023-07-28T11:34:17;1.90;;;1.00;;
46288;SDS011;63105;46.158;14.604;2023-07-28T11:36:43;3.08;;;1.30;;
46288;SDS011;63105;46.158;14.604;2023-07-28T11:39:08;2.40;;;1.30;;
46288;SDS011;63105;46.158;14.604;2023-07-28T11:41:35;3.10;;;1.30;;
46288;SDS011;63105;46.158;14.604;2023-07-28T11:44:01;2.70;;;1.05;;
46288;SDS011;63105;46.158;14.604;2023-07-28T11:46:33;2.85;;;1.30;;
46288;SDS011;63105;46.158;14.604;2023-07-28T11:49:17;4.13;;;1.70;;
46288;SDS011;63105;46.158;14.604;2023-07-28T11:51:53;3.28;;;1.27;;
46288;SDS011;63105;46.158;14.604;2023-07-28T11:54:20;2.65;;;1.30;;
46288;SDS011;63105;46.158;14.604;2023-07-28T11:56:47;2.45;;;1.30;;
46288;SDS011;63105;46.158;14.604;2023-07-28T11:59:14;2.65;;;1.20;;
46288;SDS011;63105;46.158;14.604;2023-07-28T12:01:55;3.15;;;1.42;;
46288;SDS011;63105;46.158;14.604;2023-07-28T12:04:25;2.60;;;1.30;;
46288;SDS011;63105;46.158;14.604;2023-07-28T12:07:03;2.60;;;1.10;;
46288;SDS011;63105;46.158;14.604;2023-07-28T12:09:28;3.38;;;1.13;;
46288;SDS011;63105;46.158;14.604;2023-07-28T12:11:54;2.88;;;1.40;;
46288;SDS011;63105;46.158;14.604;2023-07-28T12:14:32;2.47;;;1.27;;
46288;SDS011;63105;46.158;14.604;2023-07-28T12:16:57;3.50;;;1.30;;
46288;SDS011;63105;46.158;14.604;2023-07-28T12:19:22;2.40;;;1.13;;
46288;SDS011;63105;46.158;14.604;2023-07-28T12:21:47;2.50;;;1.23;;
46288;SDS011;63105;46.158;14.604;2023-07-28T12:24:13;2.47;;;1.27;;
46288;SDS011;63105;46.158;14.604;2023-07-28T12:26:38;3.23;;;1.30;;
46288;SDS011;63105;46.158;14.604;2023-07-28T12:29:03;2.27;;;1.30;;
46288;SDS011;63105;46.158;14.604;2023-07-28T12:31:28;2.37;;;1.10;;
46288;SDS011;63105;46.158;14.604;2023-07-28T12:33:53;2.80;;;1.10;;
46288;SDS011;63105;46.158;14.604;2023-07-28T12:36:19;3.27;;;1.20;;
46288;SDS011;63105;46.158;14.604;2023-07-28T12:38:44;2.67;;;1.40;;
46288;SDS011;63105;46.158;14.604;2023-07-28T12:41:09;2.77;;;1.30;;
46288;SDS011;63105;46.158;14.604;2023-07-28T12:43:34;2.30;;;1.10;;
46288;SDS011;63105;46.158;14.604;2023-07-28T12:45:59;3.57;;;1.20;;
46288;SDS011;63105;46.158;14.604;2023-07-28T12:48:24;2.53;;;1.27;;
46288;SDS011;63105;46.158;14.604;2023-07-28T12:50:50;1.75;;;0.90;;
46288;SDS011;63105;46.158;14.604;2023-07-28T12:53:16;2.60;;;1.10;;
46288;SDS011;63105;46.158;14.604;2023-07-28T12:55:41;2.42;;;1.10;;
46288;SDS011;63105;46.158;14.604;2023-07-28T12:58:06;2.27;;;1.10;;
46288;SDS011;63105;46.158;14.604;2023-07-28T13:00:31;3.23;;;1.10;;
46288;SDS011;63105;46.158;14.604;2023-07-28T13:02:57;2.80;;;1.13;;
46288;SDS011;63105;46.158;14.604;2023-07-28T13:05:22;2.88;;;1.23;;
46288;SDS011;63105;46.158;14.604;2023-07-28T13:07:47;2.17;;;1.03;;
46288;SDS011;63105;46.158;14.604;2023-07-28T13:10:13;2.33;;;1.13;;
46288;SDS011;63105;46.158;14.604;2023-07-28T13:12:38;2.85;;;1.30;;
46288;SDS011;63105;46.158;14.604;2023-07-28T13:15:04;2.63;;;1.37;;
46288;SDS011;63105;46.158;14.604;2023-07-28T13:17:29;2.10;;;1.02;;
46288;SDS011;63105;46.158;14.604;2023-07-28T13:19:54;3.05;;;1.20;;
46288;SDS011;63105;46.158;14.604;2023-07-28T13:22:22;3.13;;;1.13;;
46288;SDS011;63105;46.158;14.604;2023-07-28T13:24:47;4.10;;;1.40;;
46288;SDS011;63105;46.158;14.604;2023-07-28T13:27:12;3.47;;;1.20;;
46288;SDS011;63105;46.158;14.604;2023-07-28T13:29:37;2.60;;;1.20;;
46288;SDS011;63105;46.158;14.604;2023-07-28T13:32:03;2.40;;;1.20;;
46288;SDS011;63105;46.158;14.604;2023-07-28T13:34:28;3.13;;;1.40;;
46288;SDS011;63105;46.158;14.604;2023-07-28T13:36:54;3.63;;;1.20;;
46288;SDS011;63105;46.158;14.604;2023-07-28T13:39:19;2.60;;;1.20;;
46288;SDS011;63105;46.158;14.604;2023-07-28T13:41:44;3.20;;;1.37;;
46288;SDS011;63105;46.158;14.604;2023-07-28T13:44:09;3.70;;;1.50;;
46288;SDS011;63105;46.158;14.604;2023-07-28T13:46:35;2.67;;;1.20;;
46288;SDS011;63105;46.158;14.604;2023-07-28T13:49:00;2.38;;;1.30;;
46288;SDS011;63105;46.158;14.604;2023-07-28T13:51:26;4.00;;;1.45;;
46288;SDS011;63105;46.158;14.604;2023-07-28T13:53:51;3.10;;;1.40;;
46288;SDS011;63105;46.158;14.604;2023-07-28T13:56:16;3.07;;;1.30;;
46288;SDS011;63105;46.158;14.604;2023-07-28T13:58:41;2.40;;;1.20;;
46288;SDS011;63105;46.158;14.604;2023-07-28T14:01:07;2.50;;;1.20;;
46288;SDS011;63105;46.158;14.604;2023-07-28T14:03:32;4.57;;;1.00;;
46288;SDS011;63105;46.158;14.604;2023-07-28T14:05:57;2.83;;;1.20;;
46288;SDS011;63105;46.158;14.604;2023-07-28T14:08:23;3.15;;;1.30;;
46288;SDS011;63105;46.158;14.604;2023-07-28T14:10:48;3.00;;;1.40;;
46288;SDS011;63105;46.158;14.604;2023-07-28T14:13:13;2.97;;;1.30;;
46288;SDS011;63105;46.158;14.604;2023-07-28T14:15:39;2.47;;;1.10;;
46288;SDS011;63105;46.158;14.604;2023-07-28T14:18:04;3.10;;;1.20;;
46288;SDS011;63105;46.158;14.604;2023-07-28T14:20:29;3.17;;;1.37;;
46288;SDS011;63105;46.158;14.604;2023-07-28T14:22:55;2.50;;;1.30;;
46288;SDS011;63105;46.158;14.604;2023-07-28T14:25:20;2.63;;;1.20;;
46288;SDS011;63105;46.158;14.604;2023-07-28T14:27:45;2.43;;;1.10;;
46288;SDS011;63105;46.158;14.604;2023-07-28T14:30:10;2.53;;;1.30;;
46288;SDS011;63105;46.158;14.604;2023-07-28T14:32:36;3.33;;;1.50;;
46288;SDS011;63105;46.158;14.604;2023-07-28T14:35:01;2.58;;;1.30;;
46288;SDS011;63105;46.158;14.604;2023-07-28T14:37:26;3.90;;;1.25;;
46288;SDS011;63105;46.158;14.604;2023-07-28T14:39:52;3.13;;;1.30;;